Time;durP1;ratioP1;P1;durP2;ratioP2;P2;SDS_P1;SDS_P2;PMS_P1;PMS_P2;Temp;Humidity;BMP_temperature;BMP_pressure;BME280_temperature;BME280_humidity;BME280_pressure;Samples;Min_cycle;Max_cycle;Signal;HPM_P1;HPM_P2
2023/07/10 00:00:14;;;;;;;86.42;81.05;;;;;;;;;;1790898;80;25456;-70
2023/07/10 00:02:43;;;;;;;84.25;79.17;;;;;;;;;;1792252;80;25619;-70
2023/07/10 00:05:15;;;;;;;16.67;15.18;;;;;;;;;;1792018;80;25657;-70
2023/07/10 00:07:43;;;;;;;8.05;5.45;;;;;;;;;;1791588;80;25530;-70
2023/07/10 00:10:12;;;;;;;7.03;4.55;;;;;;;;;;1792085;80;27492;-70
2023/07/10 00:12:40;;;;;;;7.87;4.90;;;;;;;;;;1791617;80;25589;-70
2023/07/10 00:15:18;;;;;;;6.22;4.90;;;;;;;;;;1760144;80;25636;-70
2023/07/10 00:17:50;;;;;;;6.58;5.58;;;;;;;;;;1792051;80;26218;-71
2023/07/10 00:20:26;;;;;;;9.28;6.25;;;;;;;;;;1792111;80;25471;-71
2023/07/10 00:22:52;;;;;;;9.78;8.88;;;;;;;;;;1792069;80;27432;-69
2023/07/10 00:25:19;;;;;;;12.23;11.05;;;;;;;;;;1791892;80;25555;-69
2023/07/10 00:27:49;;;;;;;13.28;12.00;;;;;;;;;;1792038;80;25433;-70
2023/07/10 00:30:19;;;;;;;12.68;10.98;;;;;;;;;;1792154;80;25813;-70
2023/07/10 00:32:52;;;;;;;14.13;13.00;;;;;;;;;;1792087;80;25423;-71
2023/07/10 00:35:17;;;;;;;15.53;14.23;;;;;;;;;;1791609;80;27441;-70
2023/07/10 00:37:49;;;;;;;24.57;22.77;;;;;;;;;;1792311;80;25272;-70
2023/07/10 00:40:22;;;;;;;85.03;79.82;;;;;;;;;;1792452;80;25505;-70
2023/07/10 00:42:52;;;;;;;83.42;78.25;;;;;;;;;;1792213;80;26213;-68
2023/07/10 00:45:20;;;;;;;81.17;76.10;;;;;;;;;;1791114;80;25384;-68
2023/07/10 00:47:49;;;;;;;79.50;74.42;;;;;;;;;;1799909;79;29560;-67
2023/07/10 00:50:25;;;;;;;88.25;82.82;;;;;;;;;;1799486;79;25522;-68
2023/07/10 00:52:53;;;;;;;87.65;82.15;;;;;;;;;;1800692;79;25451;-69
2023/07/10 00:55:29;;;;;;;89.10;83.55;;;;;;;;;;1801272;79;25612;-70
2023/07/10 00:57:58;;;;;;;85.65;80.03;;;;;;;;;;1801308;79;25601;-69
2023/07/10 01:00:27;;;;;;;87.65;81.70;;;;;;;;;;1799734;79;27316;-69
2023/07/10 01:02:53;;;;;;;85.57;80.12;;;;;;;;;;1801201;79;25619;-70
2023/07/10 01:05:20;;;;;;;83.27;78.13;;;;;;;;;;1801272;79;25540;-69
2023/07/10 01:07:49;;;;;;;84.20;78.83;;;;;;;;;;1801208;79;25676;-68
2023/07/10 01:10:15;;;;;;;82.80;77.20;;;;;;;;;;1801464;79;25546;-70
2023/07/10 01:12:43;;;;;;;81.80;76.70;;;;;;;;;;1801267;79;28138;-68
2023/07/10 01:15:11;;;;;;;6.15;4.80;;;;;;;;;;1801182;79;25814;-68
2023/07/10 01:17:38;;;;;;;8.60;4.97;;;;;;;;;;1801437;79;25384;-68
2023/07/10 01:20:25;;;;;;;6.90;4.40;;;;;;;;;;1801179;79;25713;-69
2023/07/10 01:22:51;;;;;;;7.65;4.75;;;;;;;;;;1801368;79;25390;-69
2023/07/10 01:25:17;;;;;;;5.72;5.12;;;;;;;;;;1801252;79;27353;-70
2023/07/10 01:27:43;;;;;;;6.10;4.95;;;;;;;;;;1801143;79;25617;-70
2023/07/10 01:30:22;;;;;;;10.82;9.83;;;;;;;;;;1801265;79;25566;-69
2023/07/10 01:32:50;;;;;;;14.38;13.18;;;;;;;;;;1797055;79;26460;-69
2023/07/10 01:35:21;;;;;;;12.53;11.30;;;;;;;;;;1773713;79;25390;-70
2023/07/10 01:37:45;;;;;;;11.70;10.65;;;;;;;;;;1800320;79;27566;-72
2023/07/10 01:40:14;;;;;;;18.05;16.40;;;;;;;;;;1801280;79;25579;-69
2023/07/10 01:42:40;;;;;;;61.28;57.45;;;;;;;;;;1801517;79;25604;-70
2023/07/10 01:45:10;;;;;;;87.67;82.02;;;;;;;;;;1801390;79;25443;-68
2023/07/10 01:47:35;;;;;;;35.35;32.88;;;;;;;;;;1794190;79;25535;-71
2023/07/10 01:50:02;;;;;;;9.85;8.85;;;;;;;;;;1792176;80;27973;-71
2023/07/10 01:52:28;;;;;;;8.80;7.30;;;;;;;;;;1792123;80;25624;-72
2023/07/10 01:54:54;;;;;;;13.83;12.35;;;;;;;;;;1792199;80;25455;-71
2023/07/10 01:57:23;;;;;;;11.18;10.00;;;;;;;;;;1792183;80;26182;-71
2023/07/10 01:59:51;;;;;;;11.22;9.65;;;;;;;;;;1792221;80;25528;-69
2023/07/10 02:02:17;;;;;;;11.65;10.63;;;;;;;;;;1792161;80;28081;-69
2023/07/10 02:04:43;;;;;;;13.30;11.20;;;;;;;;;;1763066;80;25620;-70
2023/07/10 02:07:09;;;;;;;13.40;12.15;;;;;;;;;;1792180;80;25426;-71
2023/07/10 02:09:35;;;;;;;15.68;14.35;;;;;;;;;;1792109;80;26159;-71
2023/07/10 02:12:01;;;;;;;16.25;14.53;;;;;;;;;;1792235;80;25509;-71
2023/07/10 02:14:28;;;;;;;18.32;16.32;;;;;;;;;;1792173;80;28068;-71
2023/07/10 02:16:54;;;;;;;53.83;50.25;;;;;;;;;;1792207;80;25409;-69
2023/07/10 02:19:20;;;;;;;22.02;20.17;;;;;;;;;;1792413;80;25538;-69
2023/07/10 02:21:47;;;;;;;87.22;81.67;;;;;;;;;;1792318;80;25612;-69
2023/07/10 02:24:15;;;;;;;92.12;86.20;;;;;;;;;;1792362;80;25446;-71
2023/07/10 02:26:41;;;;;;;88.80;83.10;;;;;;;;;;1792207;80;27323;-71
2023/07/10 02:29:07;;;;;;;91.00;85.25;;;;;;;;;;1792125;80;25558;-71
2023/07/10 02:31:33;;;;;;;40.50;37.70;;;;;;;;;;1792226;80;25376;-69
2023/07/10 02:33:59;;;;;;;6.12;5.28;;;;;;;;;;1792110;80;25691;-70
2023/07/10 02:36:28;;;;;;;8.30;5.00;;;;;;;;;;1792254;80;25369;-69
2023/07/10 02:38:54;;;;;;;8.85;5.25;;;;;;;;;;1792254;80;27383;-70
2023/07/10 02:41:20;;;;;;;86.97;81.55;;;;;;;;;;1792052;80;25951;-70
2023/07/10 02:43:46;;;;;;;88.80;83.17;;;;;;;;;;1792137;80;29648;-70
2023/07/10 02:46:12;;;;;;;34.73;32.25;;;;;;;;;;1792073;80;25674;-70
2023/07/10 02:48:38;;;;;;;7.67;5.75;;;;;;;;;;1792220;80;25425;-71
2023/07/10 02:51:04;;;;;;;7.30;5.33;;;;;;;;;;1792103;80;27327;-70
2023/07/10 02:53:32;;;;;;;6.00;4.67;;;;;;;;;;1792022;80;25629;-69
2023/07/10 02:55:58;;;;;;;14.98;13.53;;;;;;;;;;1792094;80;25611;-69
2023/07/10 02:58:24;;;;;;;32.45;30.27;;;;;;;;;;1792060;80;27891;-69
2023/07/10 03:00:58;;;;;;;83.92;78.47;;;;;;;;;;1792092;80;25598;-70
2023/07/10 03:03:25;;;;;;;90.50;84.92;;;;;;;;;;1792161;80;27621;-69
2023/07/10 03:05:55;;;;;;;18.95;17.35;;;;;;;;;;1791940;80;25574;-70
2023/07/10 03:08:21;;;;;;;8.83;5.67;;;;;;;;;;1792299;80;25551;-70
2023/07/10 03:10:47;;;;;;;8.10;5.65;;;;;;;;;;1792009;80;25708;-68
2023/07/10 03:13:12;;;;;;;7.60;5.22;;;;;;;;;;1792149;80;25394;-69
2023/07/10 03:15:38;;;;;;;7.75;5.05;;;;;;;;;;1792075;80;27395;-69
2023/07/10 03:18:04;;;;;;;6.45;5.35;;;;;;;;;;1792118;80;25636;-69
2023/07/10 03:20:31;;;;;;;7.95;5.75;;;;;;;;;;1792065;80;25520;-69
2023/07/10 03:22:57;;;;;;;8.20;5.95;;;;;;;;;;1792045;80;25706;-68
2023/07/10 03:25:23;;;;;;;74.87;70.20;;;;;;;;;;1792070;80;25574;-68
2023/07/10 03:27:51;;;;;;;74.15;69.20;;;;;;;;;;1792054;80;27392;-68
2023/07/10 03:30:16;;;;;;;22.35;20.48;;;;;;;;;;1791985;80;25404;-69
2023/07/10 03:32:43;;;;;;;15.25;13.72;;;;;;;;;;1792090;80;25556;-69
2023/07/10 03:35:09;;;;;;;9.03;6.97;;;;;;;;;;1791999;80;27867;-69
2023/07/10 03:37:35;;;;;;;6.30;5.60;;;;;;;;;;1792113;80;25541;-69
2023/07/10 03:40:01;;;;;;;8.45;5.42;;;;;;;;;;1792062;80;27330;-70
2023/07/10 03:42:27;;;;;;;11.00;8.60;;;;;;;;;;1791990;80;25369;-69
2023/07/10 03:44:53;;;;;;;7.75;5.47;;;;;;;;;;1792057;80;25363;-69
2023/07/10 03:47:19;;;;;;;8.85;5.45;;;;;;;;;;1792629;79;25668;-69
2023/07/10 03:49:45;;;;;;;25.20;22.65;;;;;;;;;;1795173;79;25471;-68
2023/07/10 03:52:11;;;;;;;24.77;9.43;;;;;;;;;;1795137;79;27358;-69
2023/07/10 03:54:36;;;;;;;12.63;6.90;;;;;;;;;;1795041;79;25705;-69
2023/07/10 03:57:04;;;;;;;10.78;6.37;;;;;;;;;;1795095;79;25525;-68
2023/07/10 03:59:30;;;;;;;91.15;85.15;;;;;;;;;;1795148;79;25670;-69
2023/07/10 04:01:55;;;;;;;85.97;80.53;;;;;;;;;;1795152;79;25597;-68
2023/07/10 04:04:22;;;;;;;89.20;83.47;;;;;;;;;;1795180;79;27379;-68
2023/07/10 04:06:48;;;;;;;87.88;82.10;;;;;;;;;;1794994;79;25663;-68
2023/07/10 04:09:13;;;;;;;61.25;57.23;;;;;;;;;;1795152;79;29572;-68
2023/07/10 04:11:39;;;;;;;47.38;44.18;;;;;;;;;;1795077;79;25690;-68
2023/07/10 04:14:07;;;;;;;19.95;16.27;;;;;;;;;;1795262;79;25529;-68
2023/07/10 04:16:33;;;;;;;16.77;15.30;;;;;;;;;;1795077;79;27393;-68
2023/07/10 04:18:59;;;;;;;84.97;79.70;;;;;;;;;;1795125;79;33569;-68
2023/07/10 04:21:28;;;;;;;97.00;90.83;;;;;;;;;;1795194;79;29694;-68
2023/07/10 04:23:55;;;;;;;;;;;;;;;;;;1797498;79;25741;-68
2023/07/10 04:26:25;;;;;;;13.75;12.25;;;;;;;;;;1795129;79;25413;-68
2023/07/10 04:28:54;;;;;;;8.63;5.62;;;;;;;;;;1795087;79;27393;-68
2023/07/10 04:31:22;;;;;;;10.72;6.70;;;;;;;;;;1795146;79;25392;-68
2023/07/10 04:33:50;;;;;;;11.03;10.03;;;;;;;;;;1795235;79;25492;-69
2023/07/10 04:36:18;;;;;;;13.00;11.75;;;;;;;;;;1795074;79;25684;-68
2023/07/10 04:38:44;;;;;;;13.13;11.90;;;;;;;;;;1795123;79;25614;-66
2023/07/10 04:41:17;;;;;;;61.88;57.48;;;;;;;;;;1795073;79;27401;-66
2023/07/10 04:43:45;;;;;;;13.35;11.28;;;;;;;;;;1795058;79;25467;-66
2023/07/10 04:46:14;;;;;;;10.55;9.53;;;;;;;;;;1795050;79;25524;-66
2023/07/10 04:48:42;;;;;;;9.73;8.80;;;;;;;;;;1764865;80;26196;-66
2023/07/10 04:51:10;;;;;;;13.30;9.98;;;;;;;;;;1791786;80;25412;-66
2023/07/10 04:53:37;;;;;;;11.12;9.88;;;;;;;;;;1791985;80;28214;-66
2023/07/10 04:56:06;;;;;;;11.97;10.93;;;;;;;;;;1792002;80;25531;-66
2023/07/10 04:58:49;;;;;;;;;;;;;;;;;;1794705;80;25512;-66
2023/07/10 05:01:18;;;;;;;6.05;5.03;;;;;;;;;;1791984;80;25663;-65
2023/07/10 05:03:45;;;;;;;6.42;5.12;;;;;;;;;;1792130;80;25605;-67
2023/07/10 05:06:11;;;;;;;6.83;4.70;;;;;;;;;;1791935;80;27375;-64
2023/07/10 05:08:37;;;;;;;5.97;4.50;;;;;;;;;;1791929;80;25855;-65
2023/07/10 05:11:03;;;;;;;6.03;4.35;;;;;;;;;;1792011;80;25563;-62
2023/07/10 05:13:30;;;;;;;5.53;4.40;;;;;;;;;;1791952;80;25653;-62
2023/07/10 05:15:58;;;;;;;8.53;6.70;;;;;;;;;;1792037;80;25598;-67
2023/07/10 05:18:29;;;;;;;5.83;4.12;;;;;;;;;;1791978;80;27424;-65
2023/07/10 05:20:58;;;;;;;5.50;4.30;;;;;;;;;;1791967;80;25636;-64
2023/07/10 05:23:25;;;;;;;4.55;3.62;;;;;;;;;;1792239;80;25601;-64
2023/07/10 05:26:04;;;;;;;6.15;4.12;;;;;;;;;;1791969;80;25610;-64
2023/07/10 05:28:31;;;;;;;5.03;3.67;;;;;;;;;;1792086;80;25552;-58
2023/07/10 05:31:00;;;;;;;6.72;3.40;;;;;;;;;;1791974;80;27333;-57
2023/07/10 05:33:28;;;;;;;4.95;4.20;;;;;;;;;;1792039;80;25455;-59
2023/07/10 05:35:58;;;;;;;5.35;3.98;;;;;;;;;;1791993;80;25546;-58
2023/07/10 05:38:27;;;;;;;5.62;3.95;;;;;;;;;;1791126;80;25627;-62
2023/07/10 05:40:53;;;;;;;6.03;4.08;;;;;;;;;;1791553;80;25416;-59
2023/07/10 05:43:21;;;;;;;6.00;4.50;;;;;;;;;;1791871;80;27348;-59
2023/07/10 05:45:53;;;;;;;5.92;4.28;;;;;;;;;;1791907;80;25570;-62
2023/07/10 05:48:19;;;;;;;5.22;4.17;;;;;;;;;;1791869;80;25597;-61
2023/07/10 05:50:47;;;;;;;4.53;4.12;;;;;;;;;;1791966;80;25629;-63
2023/07/10 05:53:15;;;;;;;8.83;5.83;;;;;;;;;;1792276;80;25475;-63
2023/07/10 05:55:49;;;;;;;12.40;11.50;;;;;;;;;;1762933;80;27220;-62
2023/07/10 05:58:18;;;;;;;12.15;11.00;;;;;;;;;;1791971;80;25474;-61
2023/07/10 06:00:48;;;;;;;24.40;22.93;;;;;;;;;;1763141;80;25420;-62
2023/07/10 06:03:15;;;;;;;8.08;6.95;;;;;;;;;;1792003;80;25710;-60
2023/07/10 06:05:41;;;;;;;15.48;14.38;;;;;;;;;;1792092;80;25410;-60
2023/07/10 06:08:09;;;;;;;57.98;54.40;;;;;;;;;;1791998;80;27992;-61
2023/07/10 06:10:35;;;;;;;77.58;72.97;;;;;;;;;;1791929;80;25468;-59
2023/07/10 06:13:01;;;;;;;76.85;72.47;;;;;;;;;;1792016;80;25368;-61
2023/07/10 06:15:30;;;;;;;78.80;74.32;;;;;;;;;;1791951;80;25723;-61
2023/07/10 06:17:56;;;;;;;76.87;72.58;;;;;;;;;;1792173;80;25615;-62
2023/07/10 06:20:22;;;;;;;80.50;75.85;;;;;;;;;;1791953;80;27392;-62
2023/07/10 06:22:48;;;;;;;78.50;73.90;;;;;;;;;;1791874;80;33614;-64
2023/07/10 06:25:14;;;;;;;78.47;74.03;;;;;;;;;;1762826;80;29576;-62
2023/07/10 06:27:40;;;;;;;75.95;71.62;;;;;;;;;;1791869;80;25623;-62
2023/07/10 06:30:08;;;;;;;76.57;72.27;;;;;;;;;;1792110;80;32702;-62
2023/07/10 06:32:36;;;;;;;;;;;;;;;;;;1794835;80;27377;-63
2023/07/10 06:35:05;;;;;;;77.50;73.12;;;;;;;;;;1792067;80;25567;-62
2023/07/10 06:37:32;;;;;;;13.30;12.20;;;;;;;;;;1792262;80;25401;-61
2023/07/10 06:40:14;;;;;;;9.50;8.73;;;;;;;;;;1791584;80;25837;-65
2023/07/10 06:42:41;;;;;;;6.05;4.12;;;;;;;;;;1791064;80;25637;-70
2023/07/10 06:45:10;;;;;;;28.27;26.42;;;;;;;;;;1792122;80;27983;-65
2023/07/10 06:47:42;;;;;;;19.07;17.67;;;;;;;;;;1792169;80;25513;-66
2023/07/10 06:50:12;;;;;;;76.02;71.40;;;;;;;;;;1795128;79;25584;-66
2023/07/10 06:52:40;;;;;;;8.25;6.65;;;;;;;;;;1795211;79;25702;-65
2023/07/10 06:55:11;;;;;;;7.12;6.40;;;;;;;;;;1795381;79;25604;-65
2023/07/10 06:57:37;;;;;;;9.65;8.80;;;;;;;;;;1795246;79;27879;-65
2023/07/10 07:00:08;;;;;;;5.72;3.98;;;;;;;;;;1795055;79;25456;-66
2023/07/10 07:02:35;;;;;;;5.42;4.92;;;;;;;;;;1794710;79;25586;-65
2023/07/10 07:05:05;;;;;;;74.67;70.22;;;;;;;;;;1795179;79;25555;-65
2023/07/10 07:07:31;;;;;;;75.28;71.02;;;;;;;;;;1795204;79;25463;-65
2023/07/10 07:09:57;;;;;;;72.95;68.75;;;;;;;;;;1795207;79;27339;-66
2023/07/10 07:12:23;;;;;;;72.95;68.83;;;;;;;;;;1795065;79;25662;-65
2023/07/10 07:14:49;;;;;;;76.67;72.58;;;;;;;;;;1795136;79;25459;-65
2023/07/10 07:17:15;;;;;;;74.07;69.72;;;;;;;;;;1795096;79;25670;-66
2023/07/10 07:19:44;;;;;;;74.42;70.37;;;;;;;;;;1795160;79;25594;-66
2023/07/10 07:22:10;;;;;;;72.37;68.47;;;;;;;;;;1795356;79;27892;-66
2023/07/10 07:24:37;;;;;;;73.70;69.30;;;;;;;;;;1795102;79;25455;-66
2023/07/10 07:27:05;;;;;;;73.52;69.22;;;;;;;;;;1795125;79;25549;-65
2023/07/10 07:29:31;;;;;;;75.52;70.92;;;;;;;;;;1795161;79;25774;-65
2023/07/10 07:31:57;;;;;;;72.15;68.35;;;;;;;;;;1795161;79;25453;-66
2023/07/10 07:34:24;;;;;;;74.60;70.42;;;;;;;;;;1795192;79;27382;-66
2023/07/10 07:36:51;;;;;;;71.67;67.87;;;;;;;;;;1795096;79;25639;-66
2023/07/10 07:39:20;;;;;;;68.97;65.17;;;;;;;;;;1765521;79;25584;-66
2023/07/10 07:41:47;;;;;;;68.87;65.22;;;;;;;;;;1795320;79;25742;-66
2023/07/10 07:44:14;;;;;;;69.05;65.35;;;;;;;;;;1795210;79;25562;-66
2023/07/10 07:46:40;;;;;;;5.53;5.03;;;;;;;;;;1795101;79;27382;-66
2023/07/10 07:49:07;;;;;;;5.03;3.00;;;;;;;;;;1793654;79;25504;-66
2023/07/10 07:51:32;;;;;;;4.37;3.52;;;;;;;;;;1792093;80;25619;-66
2023/07/10 07:54:05;;;;;;;3.12;2.83;;;;;;;;;;1792052;80;25626;-66
2023/07/10 07:56:32;;;;;;;4.75;2.72;;;;;;;;;;1792125;80;25623;-66
2023/07/10 07:58:58;;;;;;;6.28;5.70;;;;;;;;;;1792149;80;27364;-66
2023/07/10 08:01:24;;;;;;;9.90;9.10;;;;;;;;;;1791942;80;25971;-66
2023/07/10 08:03:50;;;;;;;67.82;64.15;;;;;;;;;;1792084;80;25521;-66
2023/07/10 08:06:17;;;;;;;67.65;64.17;;;;;;;;;;1762623;80;25760;-66
2023/07/10 08:08:44;;;;;;;70.42;66.82;;;;;;;;;;1792079;80;25503;-66
2023/07/10 08:11:12;;;;;;;69.47;65.80;;;;;;;;;;1792064;80;27339;-66
2023/07/10 08:13:38;;;;;;;67.67;64.22;;;;;;;;;;1791956;80;25432;-66
2023/07/10 08:16:04;;;;;;;68.80;65.32;;;;;;;;;;1792017;80;25387;-66
2023/07/10 08:18:30;;;;;;;68.87;65.28;;;;;;;;;;1792034;80;25713;-66
2023/07/10 08:21:04;;;;;;;69.95;66.45;;;;;;;;;;1792100;80;25542;-66
2023/07/10 08:23:31;;;;;;;68.05;64.65;;;;;;;;;;1792027;80;29539;-67
2023/07/10 08:25:57;;;;;;;67.47;64.07;;;;;;;;;;1791898;80;25487;-67
2023/07/10 08:28:23;;;;;;;68.33;64.75;;;;;;;;;;1791960;80;25575;-67
2023/07/10 08:30:50;;;;;;;47.00;44.53;;;;;;;;;;1791965;80;35241;-67
2023/07/10 08:33:17;;;;;;;65.52;62.15;;;;;;;;;;1792209;80;25319;-66
2023/07/10 08:35:56;;;;;;;15.65;14.75;;;;;;;;;;1792132;80;27258;-67
2023/07/10 08:40:36;;;;;;;99.52;93.40;;;;;;;33.11;30.01;100615.02;1905383;74;34636;-67
2023/07/10 08:43:24;;;;;;;18.85;17.75;;;;;;;;;;1859915;77;25285;-67
2023/07/10 08:45:55;;;;;;;18.32;17.05;;;;;;;;;;1859916;77;29543;-67
2023/07/10 08:49:55;;;;;;;12.70;12.00;;;;;;;20.39;28.99;98660.75;1905688;74;25480;-68
2023/07/10 08:52:32;;;;;;;62.30;59.18;;;;;;;;;;1838649;77;25389;-67
2023/07/10 08:55:00;;;;;;;95.87;90.00;;;;;;;;;;1856233;76;27415;-67
2023/07/10 08:57:29;;;;;;;54.35;51.13;;;;;;;;;;1859737;77;25446;-66
2023/07/10 09:00:04;;;;;;;11.90;11.40;;;;;;;;;;1859894;76;25421;-67
2023/07/10 13:10:44;;;;;;;62.78;59.23;;;;;;;35.79;22.45;100393.65;1868306;76;25258;-68
2023/07/10 13:13:19;;;;;;;60.10;57.03;;;;;;;35.10;22.13;100389.27;1757014;81;25433;-67
2023/07/10 13:15:47;;;;;;;57.88;55.00;;;;;;;34.48;21.56;100390.59;1777062;80;27516;-68
2023/07/10 13:18:23;;;;;;;63.90;60.70;;;;;;;33.84;21.24;100386.64;1777078;80;25570;-69
2023/07/10 13:20:51;;;;;;;31.40;29.75;;;;;;;30.07;21.95;99885.66;1777028;80;25666;-68
2023/07/10 13:23:18;;;;;;;65.12;61.92;;;;;;;32.73;21.82;100387.80;1777196;80;25616;-71
2023/07/10 13:25:46;;;;;;;72.03;68.10;;;;;;;32.32;22.34;100386.32;1777115;80;25383;-69
2023/07/10 13:28:21;;;;;;;44.00;39.90;;;;;;;32.00;23.06;100381.89;1757009;81;27524;-71
2023/07/10 13:30:49;;;;;;;78.37;73.47;;;;;;;31.70;23.12;100386.92;1775569;80;25802;-71
2023/07/10 13:33:23;;;;;;;4.03;3.00;;;;;;;31.47;23.91;100379.09;1777243;80;25194;-69
2023/07/10 13:35:53;;;;;;;51.28;48.40;;;;;;;31.28;23.35;100376.75;1755995;81;25473;-69
2023/07/10 13:38:21;;;;;;;69.27;65.78;;;;;;;31.06;24.23;100372.48;1771150;81;25598;-69
2023/07/10 13:40:47;;;;;;;67.47;63.87;;;;;;;30.91;23.90;100373.52;1756857;81;27508;-68
2023/07/10 13:43:21;;;;;;;68.35;64.92;;;;;;;30.83;23.49;100372.18;1776812;80;25998;-68
2023/07/10 13:46:02;;;;;;;71.50;67.70;;;;;;;30.76;24.40;100381.41;1756822;81;25673;-69
2023/07/10 13:48:29;;;;;;;70.87;67.27;;;;;;;30.63;24.43;100369.64;1770867;81;25578;-69
2023/07/10 13:50:56;;;;;;;71.07;67.42;;;;;;;30.53;24.75;100377.09;1757118;81;25503;-70
2023/07/10 13:53:25;;;;;;;70.65;66.67;;;;;;;30.55;25.03;100372.47;1771085;81;28059;-70
2023/07/10 13:55:53;;;;;;;55.70;52.45;;;;;;;30.67;25.31;100368.90;1756961;81;25613;-70
2023/07/10 13:58:25;;;;;;;75.20;71.17;;;;;;;30.82;25.07;100362.86;1777203;80;25384;-68
2023/07/10 14:00:55;;;;;;;71.50;67.90;;;;;;;31.00;25.30;100368.69;1777041;80;25813;-68
2023/07/10 14:03:24;;;;;;;72.45;68.62;;;;;;;31.10;24.64;100371.73;1777188;80;25459;-64
2023/07/10 14:05:53;;;;;;;69.58;66.10;;;;;;;31.13;24.97;100347.73;1777036;80;27532;-67
2023/07/10 14:08:26;;;;;;;60.15;56.77;;;;;;;31.19;25.17;100343.74;1776922;80;25594;-51
2023/07/10 14:10:56;;;;;;;54.88;51.85;;;;;;;;;;1776967;80;25606;-51
2023/07/10 14:13:23;;;;;;;50.55;47.80;;;;;;;;;;1776957;80;25499;-52
2023/07/10 14:16:02;;;;;;;68.80;65.22;;;;;;;;;;1776919;80;25570;-51
2023/07/10 14:18:29;;;;;;;61.00;57.80;;;;;;;;;;1776859;80;27499;-50
2023/07/10 14:20:59;;;;;;;9.25;8.43;;;;;;;;;;1776593;80;25543;-52
2023/07/10 14:23:27;;;;;;;8.73;8.23;;;;;;;;;;1776421;80;25609;-53
2023/07/10 14:25:55;;;;;;;8.00;6.45;;;;;;;;;;1776430;80;25394;-51
2023/07/10 14:28:25;;;;;;;8.93;8.43;;;;;;;;;;1776344;80;25152;-51
2023/07/10 14:30:52;;;;;;;11.25;10.55;;;;;;;;;;1776465;80;28387;-52
2023/07/10 14:33:19;;;;;;;97.33;91.53;;;;;;;;;;1776283;80;25410;-53
2023/07/10 14:35:47;;;;;;;67.70;64.25;;;;;;;;;;1776456;80;25513;-53
2023/07/10 14:38:26;;;;;;;64.80;61.58;;;;;;;;;;1746311;80;25718;-51
2023/07/10 14:40:55;;;;;;;71.10;67.22;;;;;;;;;;1776337;80;25584;-53
2023/07/10 14:43:22;;;;;;;67.20;63.80;;;;;;;;;;1776395;80;27617;-49
2023/07/10 14:45:59;;;;;;;66.80;63.17;;;;;;;;;;1776206;80;25422;-53
2023/07/10 14:48:26;;;;;;;74.22;70.35;;;;;;;;;;1776262;80;25546;-54
2023/07/10 14:50:55;;;;;;;69.97;66.10;;;;;;;;;;1776380;80;25504;-55
2023/07/10 14:53:25;;;;;;;64.67;61.45;;;;;;;;;;1776489;80;25408;-52
2023/07/10 14:55:52;;;;;;;68.47;64.97;;;;;;;;;;1776440;80;28113;-52
2023/07/10 14:58:22;;;;;;;66.40;62.48;;;;;;;;;;1776379;80;25514;-52
2023/07/10 15:00:51;;;;;;;68.75;65.25;;;;;;;;;;1776398;80;25450;-51
2023/07/10 15:03:17;;;;;;;65.22;61.90;;;;;;;;;;1776378;80;25483;-55
2023/07/10 15:05:49;;;;;;;72.85;68.87;;;;;;;;;;1776301;80;25377;-55
2023/07/10 15:08:28;;;;;;;53.17;49.25;;;;;;;;;;1776316;80;28318;-55
2023/07/10 15:10:55;;;;;;;73.22;68.35;;;;;;;;;;1776054;80;27111;-54
2023/07/10 15:13:24;;;;;;;63.87;60.63;;;;;;;;;;1776419;80;25608;-51
2023/07/10 15:15:52;;;;;;;64.92;61.58;;;;;;;;;;1776263;80;25609;-54
2023/07/10 15:18:21;;;;;;;7.55;2.80;;;;;;;;;;1776263;80;25379;-52
2023/07/10 15:20:47;;;;;;;3.65;1.80;;;;;;;;;;1776316;80;27535;-50
2023/07/10 15:23:26;;;;;;;13.48;12.05;;;;;;;;;;1776218;80;25544;-54
2023/07/10 15:25:56;;;;;;;83.22;78.10;;;;;;;;;;1776432;79;25363;-53
2023/07/10 15:28:22;;;;;;;71.75;67.70;;;;;;;;;;1776025;80;25460;-53
2023/07/10 15:30:52;;;;;;;71.00;67.40;;;;;;;;;;1776327;80;25396;-51
2023/07/10 15:33:18;;;;;;;69.45;65.80;;;;;;;;;;1776040;80;27463;-50
2023/07/10 15:35:43;;;;;;;67.17;63.80;;;;;;;;;;1776157;80;25532;-51
2023/07/10 15:38:16;;;;;;;71.53;67.80;;;;;;;;;;1776343;80;25591;-51
2023/07/10 15:40:45;;;;;;;74.27;70.10;;;;;;;;;;1776162;80;25504;-54
2023/07/10 15:43:15;;;;;;;;;;;;;;;;;;1778994;80;25553;-50
2023/07/10 15:45:41;;;;;;;67.30;63.73;;;;;;;;;;1774977;80;29636;-55
2023/07/10 15:48:11;;;;;;;54.48;51.30;;;;;;;;;;1776197;80;25575;-51
2023/07/10 15:50:39;;;;;;;67.75;64.35;;;;;;;;;;1776273;80;25615;-51
2023/07/10 15:53:18;;;;;;;43.30;41.33;;;;;;;;;;1776282;80;25821;-54
2023/07/10 15:55:46;;;;;;;59.98;56.92;;;;;;;;;;1776310;80;25479;-55
2023/07/10 15:58:17;;;;;;;66.50;62.90;;;;;;;;;;1776415;80;27425;-51
2023/07/10 16:00:48;;;;;;;77.60;73.40;;;;;;;;;;1776202;80;25700;-54
2023/07/10 16:03:18;;;;;;;73.12;69.30;;;;;;;;;;1776294;80;25345;-53
2023/07/10 16:05:47;;;;;;;77.78;73.60;;;;;;;;;;1776132;80;25529;-58
2023/07/10 16:08:27;;;;;;;67.20;63.55;;;;;;;;;;1776255;80;25374;-56
2023/07/10 16:11:10;;;;;;;69.40;65.90;;;;;;;;;;1776154;80;27367;-56
2023/07/10 16:13:38;;;;;;;47.20;44.38;;;;;;;;;;1776185;80;25413;-56
2023/07/10 16:16:06;;;;;;;4.08;1.90;;;;;;;;;;1776292;80;25447;-56
2023/07/10 16:18:35;;;;;;;3.85;3.42;;;;;;;;;;1776247;80;25522;-54
2023/07/10 16:21:18;;;;;;;9.73;8.88;;;;;;;;;;1776445;80;25445;-54
2023/07/10 16:23:46;;;;;;;13.22;12.15;;;;;;;;;;1776336;80;27688;-54
2023/07/10 16:26:15;;;;;;;9.63;8.87;;;;;;;;;;1776405;80;25612;-51
2023/07/10 16:28:43;;;;;;;52.30;49.70;;;;;;;;;;1776328;80;25301;-56
2023/07/10 16:33:27;;;;;;;2.90;2.70;;;;;;;29.50;24.60;100290.95;1905390;74;26086;-51
2023/07/10 16:35:55;;;;;;;6.00;5.22;;;;;;;29.34;24.65;100277.85;1859988;77;25413;-55
2023/07/10 16:38:23;;;;;;;7.47;6.90;;;;;;;29.26;24.66;100275.08;1860196;77;26845;-52
2023/07/10 16:40:56;;;;;;;25.90;24.47;;;;;;;29.18;24.78;100275.86;1859970;77;25406;-53
2023/07/10 16:43:33;;;;;;;67.60;64.10;;;;;;;29.08;25.06;100270.55;1859888;76;25558;-53
2023/07/10 16:46:02;;;;;;;70.92;67.25;;;;;;;28.98;24.95;100269.01;1859880;76;25579;-55
2023/07/10 16:48:29;;;;;;;72.62;68.72;;;;;;;28.93;25.07;100273.71;1859854;77;25384;-53
2023/07/10 16:51:01;;;;;;;4.47;4.08;;;;;;;28.83;25.13;100265.80;1859982;76;27513;-55
2023/07/10 16:53:32;;;;;;;5.10;4.70;;;;;;;28.80;25.36;100276.40;1859947;77;25336;-57
2023/07/10 16:56:02;;;;;;;7.85;7.20;;;;;;;28.75;25.47;100280.32;1860034;76;25358;-55
2023/07/10 16:58:34;;;;;;;10.13;9.23;;;;;;;28.68;25.57;100275.70;1859918;76;25798;-55
2023/07/10 17:01:16;;;;;;;70.87;67.08;;;;;;;28.60;25.58;100270.13;1859579;76;25322;-55
2023/07/10 17:03:43;;;;;;;72.55;68.75;;;;;;;28.53;25.64;100271.67;1859972;77;27329;-55
2023/07/10 17:06:18;;;;;;;72.42;68.67;;;;;;;28.44;25.67;100267.48;1859819;76;25302;-54
2023/07/10 17:08:46;;;;;;;72.20;68.40;;;;;;;28.38;26.01;100270.59;1859935;77;25315;-52
2023/07/10 17:11:27;;;;;;;71.02;66.90;;;;;;;28.30;26.08;100263.03;1859848;76;25370;-55
2023/07/10 17:13:55;;;;;;;68.10;64.50;;;;;;;28.26;26.37;100270.66;1860054;76;25312;-54
2023/07/10 17:16:22;;;;;;;66.62;63.05;;;;;;;28.20;26.45;100265.45;1860055;76;27329;-55
2023/07/10 17:18:49;;;;;;;69.87;66.10;;;;;;;24.78;26.65;99708.14;1859850;76;25678;-53
2023/07/10 17:21:17;;;;;;;77.15;72.60;;;;;;;28.09;26.82;100262.11;1859956;76;25364;-54
2023/07/10 17:23:44;;;;;;;70.47;66.55;;;;;;;28.03;26.82;100259.06;1860167;76;25364;-53
2023/07/10 17:26:20;;;;;;;67.32;63.63;;;;;;;28.00;26.96;100258.53;1859982;76;25321;-55
2023/07/10 17:28:48;;;;;;;76.35;71.87;;;;;;;27.95;27.21;100260.42;1859941;77;27415;-55
2023/07/10 17:31:27;;;;;;;12.70;12.10;;;;;;;;;;1860021;77;25389;-53
2023/07/10 17:33:56;;;;;;;75.70;71.50;;;;;;;;;;1859980;76;25322;-51
2023/07/10 17:36:24;;;;;;;70.95;66.95;;;;;;;;;;1859955;77;25737;-56
2023/07/10 17:38:51;;;;;;;73.07;68.78;;;;;;;;;;1859650;76;25275;-55
2023/07/10 17:41:21;;;;;;;69.67;65.95;;;;;;;;;;1859866;77;27548;-54
2023/07/10 17:43:53;;;;;;;82.88;78.10;;;;;;;;;;1859526;76;25587;-53
2023/07/10 17:46:20;;;;;;;94.13;88.45;;;;;;;;;;1838149;77;25333;-55
2023/07/10 17:48:47;;;;;;;69.25;65.65;;;;;;;;;;1859328;76;25270;-55
2023/07/10 17:51:29;;;;;;;74.97;70.87;;;;;;;;;;1859398;77;25335;-56
2023/07/10 17:53:57;;;;;;;71.87;67.65;;;;;;;;;;1859481;77;31518;-52
2023/07/10 17:56:56;;;;;;;22.55;21.35;;;;;;;27.21;28.90;100248.92;1905382;74;33990;-55
2023/07/10 17:59:46;;;;;;;87.90;82.17;;;;;;;27.11;29.33;100254.84;1905427;74;28924;-53
2023/07/10 18:02:20;;;;;;;115.92;108.00;;;;;;;;;;1859933;77;25350;-53
2023/07/10 18:04:48;;;;;;;76.87;72.78;;;;;;;;;;1858601;76;27322;-62
2023/07/10 18:07:15;;;;;;;13.10;12.47;;;;;;;;;;1859845;77;25697;-56
2023/07/10 18:11:22;;;;;;;7.95;5.60;;;;;;;26.76;29.98;100245.13;1905510;74;26036;-56
2023/07/10 18:13:49;;;;;;;7.65;7.05;;;;;;;26.60;30.35;100240.98;1784324;80;25533;-53